createdAt,value
2022-09-15T00:00:58.706Z,12.47
2022-09-15T00:03:25.092Z,12.54
2022-09-15T00:05:53.164Z,12.61
2022-09-15T00:08:19.625Z,12.67
2022-09-15T00:10:54.091Z,12.75
2022-09-15T00:13:21.562Z,12.82
2022-09-15T00:15:48.442Z,12.82
2022-09-15T00:18:14.913Z,12.91
2022-09-15T00:20:42.894Z,13.00
2022-09-15T00:23:10.877Z,13.05
2022-09-15T00:25:45.926Z,13.12
2022-09-15T00:28:13.873Z,13.15
2022-09-15T00:30:42.676Z,13.17
2022-09-15T00:33:09.422Z,13.18
2022-09-15T00:35:40.248Z,13.21
2022-09-15T00:38:08.110Z,13.19
2022-09-15T00:40:43.544Z,13.24
2022-09-15T00:43:10.839Z,13.27
2022-09-15T00:45:37.850Z,13.28
2022-09-15T00:48:06.151Z,13.28
2022-09-15T00:50:33.916Z,13.24
2022-09-15T00:53:03.871Z,13.31
2022-09-15T00:55:37.170Z,13.33
2022-09-15T00:58:06.832Z,13.34
2022-09-15T01:00:34.569Z,13.34
2022-09-15T01:03:02.503Z,13.33
2022-09-15T01:05:34.816Z,13.38
2022-09-15T01:08:11.141Z,13.39
2022-09-15T01:10:39.512Z,13.40
2022-09-15T01:13:10.322Z,13.34
2022-09-15T01:16:04.621Z,13.33
2022-09-15T01:18:46.919Z,13.38
2022-09-15T01:21:19.232Z,13.34
2022-09-15T01:24:20.826Z,13.30
2022-09-15T01:26:58.969Z,13.27
2022-09-15T01:29:46.486Z,13.15
2022-09-15T01:32:29.193Z,13.13
2022-09-15T01:35:03.556Z,13.09
2022-09-15T01:37:36.902Z,13.03
2022-09-15T01:40:04.865Z,13.00
2022-09-15T01:42:32.852Z,12.96
2022-09-15T01:45:06.321Z,12.90
2022-09-15T01:47:35.004Z,12.80
2022-09-15T01:50:12.239Z,12.81
2022-09-15T01:52:43.288Z,12.90
2022-09-15T01:55:20.035Z,12.91
2022-09-15T01:57:46.349Z,12.93
2022-09-15T02:00:13.097Z,12.95
2022-09-15T02:02:46.113Z,12.95
2022-09-15T02:05:37.154Z,12.98
2022-09-15T02:08:31.340Z,13.08
2022-09-15T02:11:08.652Z,13.12
2022-09-15T02:14:01.188Z,13.14
2022-09-15T02:16:32.180Z,13.20
2022-09-15T02:19:16.810Z,13.28
2022-09-15T02:21:59.099Z,13.33
2022-09-15T02:24:38.247Z,13.43
2022-09-15T02:27:10.031Z,13.49
2022-09-15T02:29:37.803Z,13.46
2022-09-15T02:32:07.550Z,13.56
2022-09-15T02:34:39.655Z,13.60
2022-09-15T02:37:06.531Z,13.63
2022-09-15T02:39:36.779Z,13.55
2022-09-15T02:42:04.077Z,13.68
2022-09-15T02:44:31.168Z,13.71
2022-09-15T02:46:59.110Z,13.71
2022-09-15T02:49:25.452Z,13.66
2022-09-15T02:51:51.984Z,13.72
2022-09-15T02:54:18.359Z,13.69
2022-09-15T02:56:44.959Z,13.67
2022-09-15T02:59:11.315Z,13.66
2022-09-15T03:01:37.709Z,13.65
2022-09-15T03:04:04.668Z,13.67
2022-09-15T03:06:31.506Z,13.64
2022-09-15T03:08:58.593Z,13.70
2022-09-15T03:11:26.480Z,13.72
2022-09-15T03:13:57.928Z,13.67
2022-09-15T03:16:25.773Z,13.73
2022-09-15T03:18:54.999Z,13.73
2022-09-15T03:21:21.827Z,13.74
2022-09-15T03:23:48.230Z,13.69
2022-09-15T03:26:14.697Z,13.77
2022-09-15T03:28:41.300Z,13.74
2022-09-15T03:31:08.878Z,13.75
2022-09-15T03:33:35.619Z,13.73
2022-09-15T03:36:02.754Z,13.69
2022-09-15T03:38:29.519Z,13.70
2022-09-15T03:41:07.523Z,13.69
2022-09-15T03:43:34.427Z,13.70
2022-09-15T03:46:01.476Z,13.70
2022-09-15T03:48:31.337Z,13.63
2022-09-15T03:50:57.886Z,13.77
2022-09-15T03:53:24.285Z,13.80
2022-09-15T03:55:51.172Z,13.79
2022-09-15T03:58:18.885Z,13.84
2022-09-15T04:00:46.521Z,13.84
2022-09-15T04:03:13.543Z,13.80
2022-09-15T04:05:40.201Z,13.85
2022-09-15T04:08:06.554Z,13.85
2022-09-15T04:10:32.931Z,13.81
2022-09-15T04:12:59.220Z,13.80
2022-09-15T04:15:25.668Z,13.83
2022-09-15T04:17:51.966Z,13.83
2022-09-15T04:20:18.324Z,13.76
2022-09-15T04:22:45.007Z,13.82
2022-09-15T04:25:11.447Z,13.84
2022-09-15T04:27:37.808Z,13.84
2022-09-15T04:30:05.496Z,13.85
2022-09-15T04:32:31.816Z,13.82
2022-09-15T04:34:58.134Z,13.85
2022-09-15T04:37:24.468Z,13.79
2022-09-15T04:39:50.833Z,13.80
2022-09-15T04:42:17.200Z,13.86
2022-09-15T04:44:43.503Z,13.88
2022-09-15T04:47:09.842Z,13.87
2022-09-15T04:49:36.146Z,13.89
2022-09-15T04:52:04.769Z,13.89
2022-09-15T04:54:34.753Z,13.90
2022-09-15T04:57:01.046Z,13.86
2022-09-15T04:59:27.349Z,13.92
2022-09-15T05:01:54.830Z,13.85
2022-09-15T05:04:21.507Z,13.90
2022-09-15T05:06:47.865Z,13.85
2022-09-15T05:09:14.239Z,13.90
2022-09-15T05:11:40.704Z,13.86
2022-09-15T05:14:07.339Z,13.92
2022-09-15T05:16:33.752Z,13.93
2022-09-15T05:19:01.793Z,13.87
2022-09-15T05:21:28.840Z,13.95
2022-09-15T05:23:55.249Z,13.91
2022-09-15T05:26:24.603Z,13.91
2022-09-15T05:28:51.266Z,13.97
2022-09-15T05:31:31.249Z,13.98
2022-09-15T05:34:03.637Z,13.99
2022-09-15T05:36:30.713Z,13.99
2022-09-15T05:38:57.525Z,13.94
2022-09-15T05:41:25.786Z,14.00
2022-09-15T05:43:54.083Z,14.03
2022-09-15T05:46:20.511Z,14.04
2022-09-15T05:48:47.000Z,14.06
2022-09-15T05:51:14.070Z,14.06
2022-09-15T05:53:40.420Z,14.07
2022-09-15T05:56:11.943Z,14.09
2022-09-15T05:58:42.750Z,14.12
2022-09-15T06:01:13.647Z,14.15
2022-09-15T06:03:40.030Z,14.19
2022-09-15T06:06:07.321Z,14.20
2022-09-15T06:08:36.455Z,14.22
2022-09-15T06:11:09.539Z,14.25
2022-09-15T06:13:36.341Z,14.30
2022-09-15T06:16:11.021Z,14.35
2022-09-15T06:18:39.182Z,14.43
2022-09-15T06:21:09.703Z,14.49
2022-09-15T06:23:36.869Z,14.51
2022-09-15T06:26:08.295Z,14.61
2022-09-15T06:28:35.039Z,14.63
2022-09-15T06:31:01.353Z,14.69
2022-09-15T06:33:27.640Z,14.66
2022-09-15T06:35:54.209Z,14.76
2022-09-15T06:38:20.646Z,14.78
2022-09-15T06:40:55.276Z,14.83
2022-09-15T06:43:22.000Z,14.90
2022-09-15T06:45:48.418Z,14.96
2022-09-15T06:48:24.464Z,15.03
2022-09-15T06:50:54.861Z,15.08
2022-09-15T06:53:21.875Z,15.11
2022-09-15T06:55:48.176Z,15.07
2022-09-15T06:58:14.497Z,15.15
2022-09-15T07:00:41.035Z,15.17
2022-09-15T07:03:07.402Z,15.18
2022-09-15T07:05:33.803Z,15.11
2022-09-15T07:08:00.149Z,15.01
2022-09-15T07:10:26.617Z,14.82
2022-09-15T07:12:52.959Z,14.53
2022-09-15T07:15:19.341Z,14.40
2022-09-15T07:17:45.638Z,14.36
2022-09-15T07:20:11.992Z,14.29
2022-09-15T07:22:38.303Z,14.28
2022-09-15T07:25:04.979Z,14.27
2022-09-15T07:27:31.338Z,14.36
2022-09-15T07:29:58.659Z,14.39
2022-09-15T07:32:25.367Z,14.44
2022-09-15T07:34:52.941Z,14.56
2022-09-15T07:37:21.804Z,14.64
2022-09-15T07:39:48.149Z,14.84
2022-09-15T07:42:15.554Z,15.15
2022-09-15T07:44:41.912Z,15.29
2022-09-15T07:47:08.227Z,15.43
2022-09-15T07:49:34.528Z,15.48
2022-09-15T07:52:01.007Z,15.60
2022-09-15T07:54:27.338Z,15.59
2022-09-15T07:56:53.638Z,15.59
2022-09-15T07:59:19.952Z,15.53
2022-09-15T08:01:47.503Z,15.66
2022-09-15T08:04:13.823Z,15.68
2022-09-15T08:06:40.110Z,15.71
2022-09-15T08:09:06.520Z,15.87
2022-09-15T08:11:32.866Z,15.96
2022-09-15T08:14:00.924Z,15.95
2022-09-15T08:16:27.352Z,16.17
2022-09-15T08:18:54.656Z,16.38
2022-09-15T08:21:21.918Z,16.55
2022-09-15T08:23:53.154Z,16.74
2022-09-15T08:26:19.562Z,17.15
2022-09-15T08:28:45.957Z,17.51
2022-09-15T08:31:14.261Z,17.81
2022-09-15T08:33:45.507Z,18.10
2022-09-15T08:36:12.815Z,18.30
2022-09-15T08:38:40.873Z,18.44
2022-09-15T08:41:15.179Z,18.57
2022-09-15T08:43:47.942Z,18.77
2022-09-15T08:46:20.038Z,18.94
2022-09-15T08:48:57.711Z,19.16
2022-09-15T08:51:32.260Z,19.29
2022-09-15T08:54:07.397Z,19.63
2022-09-15T08:56:35.819Z,20.03
2022-09-15T08:59:02.362Z,20.38
2022-09-15T09:01:53.595Z,20.63
2022-09-15T09:04:38.768Z,20.71
2022-09-15T09:07:07.788Z,20.73
2022-09-15T09:09:45.586Z,20.72
2022-09-15T09:12:29.472Z,20.65
2022-09-15T09:15:20.526Z,20.56
2022-09-15T09:17:55.769Z,20.55
2022-09-15T09:20:48.857Z,20.70
2022-09-15T09:23:19.546Z,20.83
2022-09-15T09:25:46.553Z,20.98
2022-09-15T09:28:37.819Z,21.39
2022-09-15T09:31:07.357Z,21.75
2022-09-15T09:33:47.720Z,22.03
2022-09-15T09:36:15.022Z,22.09
2022-09-15T09:38:44.416Z,22.20
2022-09-15T09:41:17.463Z,22.28
2022-09-15T09:43:47.329Z,22.40
2022-09-15T09:46:15.568Z,22.58
2022-09-15T09:49:05.029Z,22.34
2022-09-15T09:51:37.307Z,22.40
2022-09-15T09:54:11.733Z,22.34
2022-09-15T09:56:38.314Z,22.09
2022-09-15T09:59:04.667Z,21.78
2022-09-15T10:01:31.347Z,21.56
2022-09-15T10:04:17.877Z,21.47
2022-09-15T10:06:44.677Z,21.50
2022-09-15T10:09:18.806Z,21.58
2022-09-15T10:11:51.192Z,21.61
2022-09-15T10:14:30.829Z,21.96
2022-09-15T10:17:16.316Z,22.15
2022-09-15T10:19:42.586Z,22.11
2022-09-15T10:22:10.030Z,22.04
2022-09-15T10:24:39.781Z,21.65
2022-09-15T10:27:25.203Z,21.43
2022-09-15T10:29:51.532Z,20.58
2022-09-15T10:32:27.229Z,20.62
2022-09-15T10:35:20.725Z,20.51
2022-09-15T10:38:04.231Z,20.31
2022-09-15T10:40:56.308Z,20.08
2022-09-15T10:43:38.751Z,19.72
2022-09-15T10:46:12.606Z,19.44
2022-09-15T10:49:11.375Z,19.48
2022-09-15T10:51:52.923Z,19.68
2022-09-15T10:55:42.190Z,20.10
2022-09-15T10:58:46.854Z,20.33
2022-09-15T11:01:25.688Z,20.46
2022-09-15T11:04:19.247Z,20.46
2022-09-15T11:06:51.496Z,20.63
2022-09-15T11:09:26.942Z,21.07
2022-09-15T11:12:09.875Z,21.49
2022-09-15T11:15:16.732Z,21.66
2022-09-15T11:18:24.315Z,21.56
2022-09-15T11:21:01.032Z,21.42
2022-09-15T11:23:51.352Z,21.12
2022-09-15T11:26:27.096Z,20.86
2022-09-15T11:28:59.451Z,20.49
2022-09-15T11:31:54.988Z,19.53
2022-09-15T11:34:26.804Z,18.89
2022-09-15T11:36:59.761Z,18.58
2022-09-15T11:39:34.345Z,18.05
2022-09-15T11:42:05.864Z,17.86
2022-09-15T11:44:37.859Z,17.75
2022-09-15T11:47:29.899Z,17.32
2022-09-15T11:49:58.206Z,17.14
2022-09-15T11:52:46.433Z,16.87
2022-09-15T11:55:23.046Z,16.72
2022-09-15T11:58:21.619Z,16.77
2022-09-15T12:01:19.496Z,16.87
2022-09-15T12:03:52.514Z,16.94
2022-09-15T12:06:29.072Z,16.99
2022-09-15T12:08:59.443Z,17.28
2022-09-15T12:11:28.380Z,17.29
2022-09-15T12:13:55.242Z,17.50
2022-09-15T12:16:22.873Z,17.58
2022-09-15T12:18:56.308Z,17.87
2022-09-15T12:21:39.231Z,18.22
2022-09-15T12:24:23.205Z,18.43
2022-09-15T12:26:49.654Z,18.40
2022-09-15T12:29:21.845Z,18.39
2022-09-15T12:31:48.320Z,18.52
2022-09-15T12:34:35.340Z,18.60
2022-09-15T12:37:13.476Z,18.77
2022-09-15T12:39:42.057Z,18.83
2022-09-15T12:42:23.595Z,18.90
2022-09-15T12:45:06.894Z,18.80
2022-09-15T12:47:41.185Z,18.96
2022-09-15T12:50:16.559Z,19.22
2022-09-15T12:52:47.104Z,19.47
2022-09-15T12:55:23.502Z,19.88
2022-09-15T12:57:56.447Z,20.19
2022-09-15T13:00:22.913Z,20.33
2022-09-15T13:02:52.895Z,19.86
2022-09-15T13:05:40.993Z,19.15
2022-09-15T13:08:22.575Z,18.52
2022-09-15T13:11:08.116Z,18.30
2022-09-15T13:13:58.592Z,18.14
2022-09-15T13:16:34.690Z,18.02
2022-09-15T13:19:34.895Z,18.03
2022-09-15T13:22:18.981Z,18.07
2022-09-15T13:24:57.807Z,18.42
2022-09-15T13:27:40.076Z,18.70
2022-09-15T13:30:28.884Z,18.91
2022-09-15T13:33:04.155Z,19.23
2022-09-15T13:35:52.266Z,19.49
2022-09-15T13:38:42.890Z,19.73
2022-09-15T13:41:18.203Z,19.28
2022-09-15T13:44:09.112Z,19.29
2022-09-15T13:46:49.094Z,19.47
2022-09-15T13:49:43.349Z,19.37
2022-09-15T13:52:32.898Z,19.45
2022-09-15T13:55:09.332Z,19.53
2022-09-15T14:00:29.638Z,19.71
2022-09-15T14:03:09.146Z,19.87
2022-09-15T14:05:36.558Z,20.07
2022-09-15T14:08:13.284Z,20.08
2022-09-15T14:10:54.087Z,19.91
2022-09-15T14:13:23.094Z,19.94
2022-09-15T14:16:01.668Z,19.71
2022-09-15T14:18:29.756Z,19.71
2022-09-15T14:21:01.726Z,19.76
2022-09-15T14:23:28.784Z,20.00
2022-09-15T14:25:56.542Z,20.01
2022-09-15T14:28:31.397Z,20.04
2022-09-15T14:31:02.260Z,19.47
2022-09-15T14:33:37.929Z,19.10
2022-09-15T14:36:27.992Z,19.24
2022-09-15T14:39:16.130Z,19.20
2022-09-15T14:41:42.486Z,19.01
2022-09-15T14:45:54.736Z,18.88
2022-09-15T14:47:25.335Z,18.81
2022-09-15T14:50:08.632Z,18.66
2022-09-15T14:52:41.855Z,18.63
2022-09-15T14:55:15.271Z,18.59
2022-09-15T14:57:46.344Z,18.62
2022-09-15T15:00:18.990Z,18.63
2022-09-15T15:02:48.268Z,18.65
2022-09-15T15:05:20.052Z,18.65
2022-09-15T15:07:46.952Z,18.65
2022-09-15T15:10:20.075Z,18.46
2022-09-15T15:12:52.174Z,18.21
2022-09-15T15:15:18.813Z,18.18
2022-09-15T15:17:47.667Z,17.89
2022-09-15T15:20:16.388Z,17.53
2022-09-15T15:22:44.098Z,17.35
2022-09-15T15:25:29.560Z,16.99
2022-09-15T15:27:59.992Z,17.04
2022-09-15T15:30:29.472Z,17.13
2022-09-15T15:33:25.876Z,17.08
2022-09-15T15:36:05.833Z,17.05
2022-09-15T15:38:47.539Z,16.84
2022-09-15T15:41:24.611Z,17.02
2022-09-15T15:43:59.350Z,16.96
2022-09-15T15:46:45.362Z,16.94
2022-09-15T15:49:11.974Z,17.04
2022-09-15T15:51:38.461Z,17.19
2022-09-15T15:54:04.911Z,17.18
2022-09-15T15:56:34.627Z,17.19
2022-09-15T15:59:03.567Z,17.12
2022-09-15T16:01:29.913Z,17.16
2022-09-15T16:03:56.228Z,17.19
2022-09-15T16:06:22.917Z,17.14
2022-09-15T16:08:49.988Z,17.04
2022-09-15T16:11:16.853Z,17.00
2022-09-15T16:13:43.246Z,16.97
2022-09-15T16:16:21.509Z,17.18
2022-09-15T16:18:48.303Z,17.16
2022-09-15T16:21:20.379Z,17.14
2022-09-15T16:23:47.137Z,16.99
2022-09-15T16:26:15.572Z,16.87
2022-09-15T16:28:42.078Z,16.81
2022-09-15T16:31:13.460Z,16.55
2022-09-15T16:33:40.873Z,16.68
2022-09-15T16:36:16.055Z,16.72
2022-09-15T16:38:43.165Z,16.59
2022-09-15T16:41:14.130Z,16.60
2022-09-15T16:43:40.454Z,16.42
2022-09-15T16:46:08.448Z,16.37
2022-09-15T16:48:34.894Z,16.32
2022-09-15T16:53:47.748Z,16.22
2022-09-15T16:56:15.295Z,16.22
2022-09-15T16:58:42.637Z,16.17
2022-09-15T17:01:20.095Z,15.94
2022-09-15T17:03:46.899Z,16.02
2022-09-15T17:06:15.637Z,16.08
2022-09-15T17:08:42.150Z,15.95
2022-09-15T17:11:16.485Z,16.04
2022-09-15T17:13:43.891Z,15.93
2022-09-15T17:16:11.048Z,15.91
2022-09-15T17:18:37.443Z,15.87
2022-09-15T17:21:03.822Z,15.73
2022-09-15T17:23:34.190Z,15.61
2022-09-15T17:26:03.210Z,15.52
2022-09-15T17:28:34.680Z,15.55
2022-09-15T17:31:06.883Z,15.48
2022-09-15T17:33:33.288Z,15.53
2022-09-15T17:36:00.347Z,15.54
2022-09-15T17:38:26.914Z,15.53
2022-09-15T17:40:53.851Z,15.49
2022-09-15T17:43:22.631Z,15.34
2022-09-15T17:45:49.980Z,15.30
2022-09-15T17:48:16.735Z,15.22
2022-09-15T17:50:44.391Z,15.13
2022-09-15T17:53:13.995Z,15.04
2022-09-15T17:55:40.348Z,14.94
2022-09-15T17:58:07.081Z,14.81
2022-09-15T18:00:36.740Z,14.72
2022-09-15T18:03:19.954Z,14.65
2022-09-15T18:05:46.595Z,14.63
2022-09-15T18:08:13.061Z,14.49
2022-09-15T18:10:39.417Z,14.42
2022-09-15T18:13:06.245Z,14.40
2022-09-15T18:15:34.853Z,14.32
2022-09-15T18:18:03.817Z,14.22
2022-09-15T18:20:32.608Z,14.12
2022-09-15T18:22:59.175Z,14.03
2022-09-15T18:25:31.456Z,13.87
2022-09-15T18:27:59.209Z,13.80
2022-09-15T18:30:28.476Z,13.75
2022-09-15T18:32:55.193Z,13.63
2022-09-15T18:35:21.895Z,13.56
2022-09-15T18:37:53.921Z,13.45
2022-09-15T18:40:20.238Z,13.44
2022-09-15T18:42:46.664Z,13.35
2022-09-15T18:45:14.852Z,13.21
2022-09-15T18:47:41.203Z,13.17
2022-09-15T18:50:08.220Z,13.17
2022-09-15T18:52:39.771Z,13.16
2022-09-15T18:55:08.016Z,13.09
2022-09-15T18:57:39.196Z,13.13
2022-09-15T19:00:12.148Z,13.05
2022-09-15T19:02:38.860Z,13.11
2022-09-15T19:05:06.854Z,13.11
2022-09-15T19:07:33.196Z,13.10
2022-09-15T19:09:59.592Z,13.08
2022-09-15T19:12:26.168Z,13.09
2022-09-15T19:14:52.488Z,12.99
2022-09-15T19:17:18.839Z,13.08
2022-09-15T19:19:45.265Z,13.06
2022-09-15T19:22:12.232Z,13.08
2022-09-15T19:24:38.575Z,13.08
2022-09-15T19:27:06.129Z,13.03
2022-09-15T19:29:34.793Z,13.01
2022-09-15T19:32:11.435Z,13.00
2022-09-15T19:34:39.284Z,12.93
2022-09-15T19:37:10.792Z,12.97
2022-09-15T19:39:40.293Z,12.92
2022-09-15T19:42:07.917Z,12.85
2022-09-15T19:44:34.399Z,12.80
2022-09-15T19:47:00.754Z,12.77
2022-09-15T19:49:27.132Z,12.71
2022-09-15T19:51:54.197Z,12.65
2022-09-15T19:54:25.675Z,12.54
2022-09-15T19:56:52.348Z,12.49
2022-09-15T19:59:19.722Z,12.44
2022-09-15T20:01:46.967Z,12.44
2022-09-15T20:06:58.190Z,12.28
2022-09-15T20:09:24.512Z,12.14
2022-09-15T20:11:50.795Z,12.14
2022-09-15T20:14:17.115Z,12.00
2022-09-15T20:16:43.472Z,12.00
2022-09-15T20:19:09.987Z,11.94
2022-09-15T20:21:52.758Z,11.88
2022-09-15T20:24:20.369Z,11.81
2022-09-15T20:26:46.767Z,11.82
2022-09-15T20:29:13.141Z,11.79
2022-09-15T20:31:40.349Z,11.74
2022-09-15T20:34:06.961Z,11.58
2022-09-15T20:36:35.615Z,11.66
2022-09-15T20:39:04.319Z,11.55
2022-09-15T20:41:31.357Z,11.57
2022-09-15T20:43:57.800Z,11.52
2022-09-15T20:46:24.322Z,11.41
2022-09-15T20:48:51.535Z,11.47
2022-09-15T20:51:27.366Z,11.38
2022-09-15T20:53:55.197Z,11.40
2022-09-15T20:56:24.191Z,11.44
2022-09-15T20:58:54.080Z,11.42
2022-09-15T21:01:23.567Z,11.39
2022-09-15T21:03:50.515Z,11.52
2022-09-15T21:06:24.454Z,11.50
2022-09-15T21:08:50.897Z,11.45
2022-09-15T21:11:19.058Z,11.45
2022-09-15T21:13:46.336Z,11.49
2022-09-15T21:16:15.483Z,11.46
2022-09-15T21:18:43.224Z,11.48
2022-09-15T21:21:12.692Z,11.46
2022-09-15T21:23:44.891Z,11.34
2022-09-15T21:26:13.976Z,11.36
2022-09-15T21:28:40.314Z,11.27
2022-09-15T21:31:10.208Z,11.21
2022-09-15T21:33:37.912Z,11.17
2022-09-15T21:36:12.915Z,11.04
2022-09-15T21:38:41.653Z,11.04
2022-09-15T21:41:13.168Z,11.02
2022-09-15T21:43:40.988Z,10.90
2022-09-15T21:46:12.116Z,10.94
2022-09-15T21:48:39.294Z,10.90
2022-09-15T21:51:06.829Z,10.87
2022-09-15T21:53:33.979Z,10.77
2022-09-15T21:56:01.423Z,10.68
2022-09-15T21:58:27.995Z,10.76
2022-09-15T22:00:54.367Z,10.69
2022-09-15T22:03:20.732Z,10.65
2022-09-15T22:05:47.419Z,10.71
2022-09-15T22:08:15.548Z,10.71
2022-09-15T22:10:43.539Z,10.75
2022-09-15T22:13:11.206Z,10.63
2022-09-15T22:15:37.745Z,10.84
2022-09-15T22:18:04.389Z,10.91
2022-09-15T22:20:30.717Z,10.93
2022-09-15T22:23:00.264Z,11.04
2022-09-15T22:25:26.927Z,11.04
2022-09-15T22:27:53.307Z,11.18
2022-09-15T22:30:19.638Z,11.27
2022-09-15T22:32:45.954Z,11.36
2022-09-15T22:35:12.369Z,11.45
2022-09-15T22:37:38.785Z,11.42
2022-09-15T22:40:05.795Z,11.51
2022-09-15T22:42:32.163Z,11.62
2022-09-15T22:44:58.497Z,11.67
2022-09-15T22:47:24.808Z,11.69
2022-09-15T22:49:51.158Z,11.62
2022-09-15T22:52:17.567Z,11.68
2022-09-15T22:54:43.879Z,11.66
2022-09-15T22:57:10.205Z,11.62
2022-09-15T22:59:36.568Z,11.62
2022-09-15T23:02:02.952Z,11.54
2022-09-15T23:04:29.453Z,11.47
2022-09-15T23:06:55.793Z,11.41
2022-09-15T23:09:22.159Z,11.40
2022-09-15T23:11:48.469Z,11.35
2022-09-15T23:14:16.546Z,11.37
2022-09-15T23:16:44.019Z,11.36
2022-09-15T23:19:13.413Z,11.26
2022-09-15T23:21:39.854Z,11.24
2022-09-15T23:24:06.490Z,11.29
2022-09-15T23:26:32.851Z,11.21
2022-09-15T23:28:59.218Z,11.25
2022-09-15T23:31:25.663Z,11.23
2022-09-15T23:33:52.025Z,11.21
2022-09-15T23:36:18.421Z,11.19
2022-09-15T23:38:47.251Z,11.19
2022-09-15T23:41:15.228Z,11.22
2022-09-15T23:43:41.854Z,11.23
2022-09-15T23:46:09.148Z,11.23
2022-09-15T23:48:35.850Z,11.10
2022-09-15T23:51:02.637Z,11.19
2022-09-15T23:53:29.212Z,11.18
2022-09-15T23:55:56.201Z,11.17
2022-09-15T23:58:22.590Z,11.14
